• Join FlightAware (Why Join?)
  • Login
  • US Flag 
Rudolph Flight #1: Arrived! 
11:39AM EST


 

Airport Tracker/Info


-or-


 

Live Flight TrackerFlight Track Log ✈ AWE3997 ✈ 27-Apr-2013 ✈ KCLT - KRIC

Flight Track Log - Related Links

Times and Time Zones

All times are in EDT time to prevent confusion due to time zone crossing. See the AWE3997 flight status page for this flight to view local times or setup timezone preferences in your user account.

Time Position Orientation Groundspeed Altitude Reporting Facility
EDT Latitude Longitude Course Direction KTS MPH feet Rate Location/Type
02:38PM 35.1950 -80.9356 72° East 154 177 1,400  Level Atlanta Center
02:38PM 35.1531 -80.9294 173° South 182 209 3,100 2,220 Climbing Atlanta Center
02:40PM 35.1213 -80.6191 29° Northeast  Level FlightAware Approximate
02:40PM 35.0994 -80.8731 139° Southeast 261 300 5,800  Level Atlanta Center
02:40PM 35.0961 -80.8200 94° East 294 338 7,600 2,940 Climbing Atlanta Center
02:41PM 35.2208 -80.5518 30° Northeast  Level FlightAware Approximate
02:41PM 35.1158 -80.7811 58° Northeast 297 342 8,800  Level Atlanta Center
02:41PM 35.1375 -80.7344 60° Northeast 298 343 10,400 1,740 Climbing Atlanta Center
02:42PM 35.3167 -80.4801 90° East  Level FlightAware Approximate
02:42PM 35.1633 -80.6878 56° Northeast 314 361 10,800  Level Atlanta Center
02:42PM 35.1850 -80.6386 62° Northeast 343 395 11,900 2,100 Climbing Atlanta Center
02:43PM 35.3599 -80.3663 72° East  Level FlightAware Approximate
02:43PM 35.2344 -80.5400 58° Northeast 366 421 13,900  Level Atlanta Center
02:44PM 35.2878 -80.4333 58° Northeast 366 421 15,000 1,020 Climbing Atlanta Center
02:45PM 35.3369 -80.3394 57° Northeast 366 421 16,000 1,080 Climbing Atlanta Center
02:46PM 35.3919 -80.2275 59° Northeast 372 428 17,200 780 Climbing Atlanta Center
02:48PM 35.4697 -80.0017 67° East 395 455 18,300 960 Climbing Washington Center
02:49PM 35.5017 -79.8708 73° East 395 455 19,900 1,320 Climbing Washington Center
02:50PM 35.5333 -79.7422 73° East 390 449 21,000 540 Climbing Washington Center
02:51PM 35.5689 -79.6114 71° East 395 455 21,000  Level Washington Center
02:52PM 35.6047 -79.4803 71° East 401 461 21,000  Level Washington Center
02:53PM 35.6503 -79.3622 65° Northeast 390 449 21,000  Level Washington Center
02:54PM 35.7306 -79.2636 45° Northeast 384 442 21,000  Level Washington Center
02:55PM 35.8172 -79.1575 45° Northeast 408 470 21,000  Level Washington Center
02:56PM 35.9036 -79.0511 45° Northeast 415 478 21,000  Level Washington Center
02:57PM 35.9944 -78.9397 45° Northeast 435 501 21,000  Level Washington Center
02:58PM 36.0808 -78.8328 45° Northeast 442 509 21,000  Level Washington Center
02:59PM 36.1694 -78.7208 46° Northeast 448 516 21,000  Level Washington Center
03:00PM 36.2619 -78.6111 44° Northeast 448 516 21,000 -300 Level Washington Center
03:01PM 36.3503 -78.5011 45° Northeast 448 516 20,500 -780 Descending Washington Center
03:02PM 36.4342 -78.3956 45° Northeast 442 509 19,500 -780 Descending Washington Center
03:03PM 36.5181 -78.2903 45° Northeast 437 503 19,000 -300 Descending Washington Center
03:04PM 36.6039 -78.1819 45° Northeast 437 503 19,000 -600 Level Washington Center
03:05PM 36.6853 -78.0783 46° Northeast 424 488 17,900 -1,620 Descending Washington Center
03:06PM 36.7625 -77.9744 47° Northeast 418 481 15,900 -2,040 Descending Washington Center
03:07PM 36.8478 -77.8811 41° Northeast 413 475 13,900 -2,040 Descending Washington Center
03:08PM 36.9325 -77.8056 35° Northeast 389 448 11,900 -1,920 Descending Washington Center
03:09PM 37.0194 -77.7353 33° Northeast 372 428 10,100 -1,140 Descending Washington Center
03:10PM 37.0894 -77.6747 35° Northeast 341 392 9,700 -1,200 Descending Washington Center
03:11PM 37.1550 -77.6192 34° Northeast 302 348 7,800 -2,040 Descending Washington Center
03:12PM 37.2203 -77.5819 24° Northeast 274 315 5,800 -1,860 Descending Washington Center
03:13PM 37.2956 -77.5681 North 262 302 4,100 -900 Descending Washington Center
03:14PM 37.3667 -77.5569 North 256 295 4,000 -60 Descending Washington Center
03:15PM 37.4400 -77.5378 12° North 256 295 4,000  Level Washington Center
03:16PM 37.5114 -77.5108 17° North 256 295 4,000 -420 Level Washington Center
03:18PM 37.6167 -77.4500 25° Northeast 227 261 3,000 -600 Descending Potomac TRACON
03:19PM 37.6167 -77.4000 90° East 184 212 2,500 -600 Descending Potomac TRACON